createdAt,value
2023-12-28T00:01:23.371Z,13.60
2023-12-28T00:04:11.588Z,13.20
2023-12-28T00:06:57.849Z,13.40
2023-12-28T00:09:43.939Z,13.10
2023-12-28T00:12:30.181Z,13.20
2023-12-28T00:15:16.398Z,13.40
2023-12-28T00:18:02.811Z,13.40
2023-12-28T00:20:50.997Z,13.40
2023-12-28T00:23:36.847Z,13.60
2023-12-28T00:26:22.804Z,13.60
2023-12-28T00:29:20.533Z,13.70
2023-12-28T00:32:07.186Z,13.80
2023-12-28T00:34:53.494Z,13.70
2023-12-28T00:37:41.167Z,13.70
2023-12-28T00:40:27.594Z,13.80
2023-12-28T00:43:13.148Z,13.70
2023-12-28T00:45:59.038Z,13.90
2023-12-28T00:48:45.234Z,13.60
2023-12-28T00:51:31.286Z,13.60
2023-12-28T00:54:19.099Z,13.50
2023-12-28T00:57:05.371Z,13.70
2023-12-28T00:59:50.954Z,13.30
2023-12-28T01:02:36.731Z,13.40
2023-12-28T01:05:22.663Z,13.30
2023-12-28T01:08:08.618Z,13.40
2023-12-28T01:10:56.747Z,13.30
2023-12-28T01:13:42.918Z,13.30
2023-12-28T01:16:30.277Z,13.40
2023-12-28T01:19:16.427Z,13.30
2023-12-28T01:22:02.147Z,13.10
2023-12-28T01:24:50.686Z,13.30
2023-12-28T01:27:38.420Z,13.30
2023-12-28T01:30:24.459Z,13.20
2023-12-28T01:33:11.211Z,13.10
2023-12-28T01:35:56.948Z,13.00
2023-12-28T01:38:42.483Z,12.80
2023-12-28T01:41:28.444Z,12.80
2023-12-28T01:44:15.581Z,13.00
2023-12-28T01:47:01.879Z,13.00
2023-12-28T01:49:48.367Z,13.20
2023-12-28T01:52:34.596Z,13.00
2023-12-28T01:55:22.234Z,13.20
2023-12-28T01:58:07.748Z,13.20
2023-12-28T02:00:58.091Z,13.10
2023-12-28T02:03:43.760Z,13.20
2023-12-28T02:06:30.513Z,13.40
2023-12-28T02:09:16.369Z,12.90
2023-12-28T02:12:02.027Z,12.90
2023-12-28T02:14:48.244Z,12.80
2023-12-28T02:17:39.526Z,12.80
2023-12-28T02:20:27.872Z,12.90
2023-12-28T02:23:13.396Z,12.90
2023-12-28T02:26:00.737Z,12.90
2023-12-28T02:28:46.666Z,12.80
2023-12-28T02:31:37.588Z,13.10
2023-12-28T02:34:31.631Z,12.80
2023-12-28T02:37:19.152Z,12.90
2023-12-28T02:40:06.614Z,12.90
2023-12-28T02:42:54.101Z,12.60
2023-12-28T02:45:41.365Z,12.60
2023-12-28T02:48:27.619Z,12.70
2023-12-28T02:51:13.893Z,12.70
2023-12-28T02:54:00.047Z,12.60
2023-12-28T02:56:45.616Z,12.60
2023-12-28T02:59:32.548Z,12.60
2023-12-28T03:02:18.305Z,12.50
2023-12-28T03:05:07.315Z,12.30
2023-12-28T03:07:57.238Z,12.40
2023-12-28T03:10:43.986Z,12.40
2023-12-28T03:13:29.999Z,12.30
2023-12-28T03:16:17.036Z,12.30
2023-12-28T03:19:02.951Z,12.30
2023-12-28T03:21:48.842Z,12.30
2023-12-28T03:24:34.962Z,12.40
2023-12-28T03:27:20.745Z,12.50
2023-12-28T03:30:07.956Z,12.60
2023-12-28T03:32:55.566Z,12.50
2023-12-28T03:35:41.555Z,12.70
2023-12-28T03:38:29.095Z,12.70
2023-12-28T03:41:18.469Z,12.80
2023-12-28T03:44:04.857Z,12.90
2023-12-28T03:46:51.184Z,12.90
2023-12-28T03:49:38.890Z,12.90
2023-12-28T03:52:26.897Z,12.80
2023-12-28T03:55:12.562Z,13.00
2023-12-28T03:57:58.358Z,12.90
2023-12-28T04:00:44.474Z,12.80
2023-12-28T04:03:30.473Z,12.80
2023-12-28T04:06:18.063Z,12.90
2023-12-28T04:09:03.940Z,13.20
2023-12-28T04:11:49.934Z,13.10
2023-12-28T04:14:36.532Z,13.10
2023-12-28T04:17:22.144Z,13.30
2023-12-28T04:20:08.889Z,13.10
2023-12-28T04:22:56.076Z,13.00
2023-12-28T04:25:41.753Z,13.00
2023-12-28T04:28:27.429Z,12.90
2023-12-28T04:31:13.261Z,12.90
2023-12-28T04:33:59.247Z,12.80
2023-12-28T04:36:46.307Z,12.50
2023-12-28T04:39:37.310Z,12.60
2023-12-28T04:42:23.104Z,12.60
2023-12-28T04:45:09.595Z,12.90
2023-12-28T04:47:55.746Z,12.90
2023-12-28T04:50:41.809Z,13.00
2023-12-28T04:53:27.278Z,12.90
2023-12-28T04:56:18.863Z,12.80
2023-12-28T04:59:04.452Z,12.80
2023-12-28T05:01:49.964Z,12.80
2023-12-28T05:04:40.205Z,12.90
2023-12-28T05:07:26.077Z,13.00
2023-12-28T05:10:11.636Z,13.10
2023-12-28T05:13:01.897Z,13.20
2023-12-28T05:15:48.325Z,13.40
2023-12-28T05:18:34.003Z,13.40
2023-12-28T05:21:19.851Z,13.50
2023-12-28T05:24:06.680Z,13.30
2023-12-28T05:26:52.037Z,13.50
2023-12-28T05:29:39.213Z,13.40
2023-12-28T05:32:25.177Z,13.30
2023-12-28T05:35:10.985Z,13.40
2023-12-28T05:37:56.955Z,13.30
2023-12-28T05:40:44.282Z,13.30
2023-12-28T05:43:30.250Z,13.40
2023-12-28T05:46:17.697Z,13.50
2023-12-28T05:49:03.314Z,13.50
2023-12-28T05:51:49.463Z,13.40
2023-12-28T05:54:36.087Z,13.30
2023-12-28T05:57:22.039Z,13.40
2023-12-28T06:00:08.516Z,13.40
2023-12-28T06:02:59.796Z,13.50
2023-12-28T06:05:45.248Z,13.60
2023-12-28T06:08:30.758Z,13.60
2023-12-28T06:11:16.804Z,13.50
2023-12-28T06:14:02.808Z,13.30
2023-12-28T06:16:48.305Z,13.40
2023-12-28T06:19:35.964Z,13.30
2023-12-28T06:22:21.515Z,13.40
2023-12-28T06:25:07.596Z,13.20
2023-12-28T06:27:53.375Z,13.50
2023-12-28T06:30:40.906Z,13.60
2023-12-28T06:33:26.584Z,13.50
2023-12-28T06:36:14.265Z,13.30
2023-12-28T06:39:00.555Z,13.40
2023-12-28T06:41:48.931Z,13.40
2023-12-28T06:44:34.918Z,13.30
2023-12-28T06:47:20.757Z,13.20
2023-12-28T06:50:07.437Z,13.40
2023-12-28T06:52:54.700Z,13.30
2023-12-28T06:55:40.403Z,13.20
2023-12-28T06:58:25.875Z,13.10
2023-12-28T07:01:13.062Z,13.10
2023-12-28T07:04:00.717Z,13.30
2023-12-28T07:06:46.344Z,13.30
2023-12-28T07:09:33.401Z,13.40
2023-12-28T07:12:21.560Z,13.50
2023-12-28T07:15:08.401Z,13.40
2023-12-28T07:17:54.018Z,13.40
2023-12-28T07:20:39.886Z,13.30
2023-12-28T07:23:25.667Z,12.90
2023-12-28T07:26:12.773Z,13.00
2023-12-28T07:28:58.472Z,13.00
2023-12-28T07:31:43.956Z,12.80
2023-12-28T07:34:29.886Z,12.80
2023-12-28T07:37:15.527Z,13.00
2023-12-28T07:40:01.420Z,13.10
2023-12-28T07:42:48.983Z,13.20
2023-12-28T07:45:34.815Z,13.20
2023-12-28T07:48:21.117Z,13.10
2023-12-28T07:51:07.532Z,13.10
2023-12-28T07:53:53.528Z,12.90
2023-12-28T07:56:39.843Z,13.10
2023-12-28T07:59:26.616Z,13.10
2023-12-28T08:02:12.083Z,13.20
2023-12-28T08:04:57.745Z,13.10
2023-12-28T08:07:43.701Z,13.20
2023-12-28T08:10:29.164Z,13.60
2023-12-28T08:13:15.046Z,13.70
2023-12-28T08:16:02.384Z,13.80
2023-12-28T08:18:48.646Z,13.70
2023-12-28T08:21:34.818Z,13.50
2023-12-28T08:24:20.682Z,13.50
2023-12-28T08:27:06.700Z,13.30
2023-12-28T08:29:52.442Z,13.50
2023-12-28T08:32:39.807Z,13.60
2023-12-28T08:35:25.927Z,13.80
2023-12-28T08:38:14.268Z,13.50
2023-12-28T08:41:00.096Z,13.60
2023-12-28T08:43:45.795Z,13.50
2023-12-28T08:46:31.327Z,13.50
2023-12-28T08:49:18.428Z,13.50
2023-12-28T08:52:04.784Z,13.60
2023-12-28T08:54:50.798Z,13.60
2023-12-28T08:57:42.497Z,13.30
2023-12-28T09:00:29.530Z,13.40
2023-12-28T09:03:15.796Z,13.60
2023-12-28T09:06:03.168Z,13.60
2023-12-28T09:08:53.014Z,13.80
2023-12-28T09:11:42.248Z,13.80
2023-12-28T09:14:27.905Z,13.60
2023-12-28T09:17:13.463Z,13.20
2023-12-28T09:19:59.355Z,13.50
2023-12-28T09:22:47.215Z,13.40
2023-12-28T09:25:34.083Z,13.70
2023-12-28T09:28:24.336Z,13.80
2023-12-28T09:31:10.419Z,13.70
2023-12-28T09:33:56.521Z,13.70
2023-12-28T09:36:42.577Z,13.90
2023-12-28T09:39:30.093Z,13.90
2023-12-28T09:42:20.640Z,13.90
2023-12-28T09:45:07.512Z,13.90
2023-12-28T09:47:53.977Z,14.10
2023-12-28T09:50:39.870Z,14.10
2023-12-28T09:53:27.038Z,14.20
2023-12-28T09:56:17.740Z,14.10
2023-12-28T09:59:05.319Z,13.90
2023-12-28T10:01:51.386Z,14.00
2023-12-28T10:04:38.193Z,14.00
2023-12-28T10:07:25.073Z,14.00
2023-12-28T10:10:11.359Z,14.20
2023-12-28T10:13:01.510Z,14.40
2023-12-28T10:15:48.063Z,14.10
2023-12-28T10:18:34.513Z,14.40
2023-12-28T10:21:20.448Z,14.70
2023-12-28T10:24:06.712Z,14.90
2023-12-28T10:26:54.403Z,15.10
2023-12-28T10:29:41.399Z,15.20
2023-12-28T10:32:28.329Z,15.00
2023-12-28T10:35:15.271Z,14.90
2023-12-28T10:38:04.720Z,14.70
2023-12-28T10:40:51.094Z,14.70
2023-12-28T10:43:46.783Z,14.50
2023-12-28T10:46:37.811Z,14.40
2023-12-28T10:49:27.737Z,14.50
2023-12-28T10:52:17.197Z,14.30
2023-12-28T10:55:21.014Z,14.10
2023-12-28T10:58:15.146Z,14.10
2023-12-28T11:01:06.417Z,14.40
2023-12-28T11:04:05.301Z,14.60
2023-12-28T11:06:52.473Z,14.50
2023-12-28T11:09:39.325Z,14.50
2023-12-28T11:12:26.661Z,14.50
2023-12-28T11:15:13.270Z,14.70
2023-12-28T11:18:00.721Z,14.60
2023-12-28T11:20:50.112Z,14.40
2023-12-28T11:23:36.713Z,14.60
2023-12-28T11:26:23.830Z,14.60
2023-12-28T11:29:09.574Z,14.60
2023-12-28T11:31:55.993Z,14.70
2023-12-28T11:34:41.908Z,14.80
2023-12-28T11:37:32.252Z,14.80
2023-12-28T11:40:21.118Z,15.10
2023-12-28T11:43:16.146Z,15.10
2023-12-28T11:46:01.951Z,15.30
2023-12-28T11:48:47.762Z,15.10
2023-12-28T11:51:34.541Z,15.10
2023-12-28T11:54:21.803Z,15.00
2023-12-28T11:57:07.692Z,15.10
2023-12-28T11:59:56.336Z,14.80
2023-12-28T12:02:45.800Z,14.70
2023-12-28T12:05:31.845Z,14.50
2023-12-28T12:08:17.560Z,14.50
2023-12-28T12:11:07.343Z,14.70
2023-12-28T12:13:54.392Z,14.50
2023-12-28T12:16:40.317Z,14.70
2023-12-28T12:19:29.105Z,14.90
2023-12-28T12:22:15.264Z,15.10
2023-12-28T12:25:05.177Z,15.20
2023-12-28T12:27:52.560Z,15.20
2023-12-28T12:30:38.739Z,14.90
2023-12-28T12:33:27.162Z,14.60
2023-12-28T12:36:13.368Z,14.60
2023-12-28T12:38:59.179Z,14.50
2023-12-28T12:41:47.276Z,14.60
2023-12-28T12:44:34.353Z,14.80
2023-12-28T12:47:19.814Z,14.80
2023-12-28T12:50:06.187Z,14.90
2023-12-28T12:52:52.022Z,14.90
2023-12-28T12:55:40.491Z,14.80
2023-12-28T12:58:26.648Z,14.60
2023-12-28T13:01:13.850Z,14.60
2023-12-28T13:03:59.943Z,14.30
2023-12-28T13:06:46.060Z,14.30
2023-12-28T13:09:31.975Z,14.20
2023-12-28T13:12:18.547Z,14.50
2023-12-28T13:15:07.309Z,14.40
2023-12-28T13:17:54.373Z,14.20
2023-12-28T13:20:40.529Z,14.10
2023-12-28T13:23:26.696Z,14.30
2023-12-28T13:26:12.240Z,14.30
2023-12-28T13:28:57.913Z,14.40
2023-12-28T13:31:45.930Z,14.50
2023-12-28T13:34:32.996Z,14.40
2023-12-28T13:37:19.483Z,14.40
2023-12-28T13:40:08.098Z,14.40
2023-12-28T13:42:54.033Z,14.30
2023-12-28T13:45:40.190Z,14.20
2023-12-28T13:48:26.247Z,14.10
2023-12-28T13:51:13.578Z,14.20
2023-12-28T13:53:59.171Z,14.40
2023-12-28T13:56:45.999Z,14.30
2023-12-28T13:59:31.454Z,14.30
2023-12-28T14:02:17.338Z,14.30
2023-12-28T14:05:03.498Z,14.30
2023-12-28T14:07:51.083Z,14.30
2023-12-28T14:10:39.348Z,14.30
2023-12-28T14:13:25.908Z,14.10
2023-12-28T14:16:11.484Z,14.20
2023-12-28T14:18:57.894Z,14.40
2023-12-28T14:21:44.270Z,14.20
2023-12-28T14:24:32.041Z,13.90
2023-12-28T14:27:18.210Z,14.10
2023-12-28T14:30:05.146Z,14.00
2023-12-28T14:32:51.620Z,14.00
2023-12-28T14:35:42.209Z,14.00
2023-12-28T14:38:28.270Z,14.00
2023-12-28T14:41:15.481Z,14.10
2023-12-28T14:44:01.366Z,13.90
2023-12-28T14:46:47.355Z,14.00
2023-12-28T14:49:33.252Z,13.90
2023-12-28T14:52:19.305Z,13.50
2023-12-28T14:55:06.159Z,13.50
2023-12-28T14:57:53.286Z,13.50
2023-12-28T15:00:39.544Z,13.50
2023-12-28T15:03:25.707Z,13.80
2023-12-28T15:06:11.851Z,13.60
2023-12-28T15:08:57.377Z,13.70
2023-12-28T15:11:48.491Z,13.80
2023-12-28T15:14:37.438Z,13.60
2023-12-28T15:17:23.578Z,13.90
2023-12-28T15:20:10.941Z,14.10
2023-12-28T15:22:57.114Z,14.00
2023-12-28T15:25:43.717Z,14.00
2023-12-28T15:28:31.559Z,13.90
2023-12-28T15:31:21.206Z,13.80
2023-12-28T15:34:07.425Z,13.60
2023-12-28T15:36:53.466Z,13.50
2023-12-28T15:39:38.917Z,13.70
2023-12-28T15:42:25.006Z,13.90
2023-12-28T15:45:11.618Z,14.00
2023-12-28T15:47:59.081Z,13.80
2023-12-28T15:50:45.158Z,13.80
2023-12-28T15:53:30.638Z,13.80
2023-12-28T15:56:19.403Z,13.80
2023-12-28T15:59:05.837Z,13.90
2023-12-28T16:01:51.846Z,13.90
2023-12-28T16:04:38.818Z,13.50
2023-12-28T16:07:24.454Z,13.40
2023-12-28T16:10:10.560Z,13.50
2023-12-28T16:12:57.073Z,13.60
2023-12-28T16:15:44.133Z,13.70
2023-12-28T16:18:30.660Z,13.70
2023-12-28T16:21:18.805Z,13.60
2023-12-28T16:24:04.606Z,13.70
2023-12-28T16:26:50.158Z,13.70
2023-12-28T16:29:36.226Z,13.50
2023-12-28T16:32:21.963Z,13.30
2023-12-28T16:35:08.576Z,13.20
2023-12-28T16:37:55.562Z,13.40
2023-12-28T16:40:41.064Z,13.40
2023-12-28T16:43:31.552Z,13.40
2023-12-28T16:46:17.890Z,13.10
2023-12-28T16:49:03.978Z,12.90
2023-12-28T16:51:49.869Z,13.20
2023-12-28T16:54:37.136Z,13.20
2023-12-28T16:57:22.899Z,13.20
2023-12-28T17:00:12.080Z,13.10
2023-12-28T17:02:58.569Z,13.20
2023-12-28T17:05:44.553Z,13.30
2023-12-28T17:08:30.410Z,13.40
2023-12-28T17:11:18.562Z,13.60
2023-12-28T17:14:05.108Z,13.60
2023-12-28T17:16:51.835Z,13.50
2023-12-28T17:19:38.419Z,13.50
2023-12-28T17:22:28.292Z,13.60
2023-12-28T17:25:25.940Z,13.30
2023-12-28T17:28:19.570Z,13.30
2023-12-28T17:31:09.453Z,13.30
2023-12-28T17:33:56.054Z,13.30
2023-12-28T17:36:42.319Z,13.40
2023-12-28T17:39:29.120Z,13.10
2023-12-28T17:42:16.894Z,13.20
2023-12-28T17:45:07.054Z,13.20
2023-12-28T17:47:58.315Z,13.00
2023-12-28T17:50:44.920Z,13.00
2023-12-28T17:53:31.239Z,13.10
2023-12-28T17:56:18.366Z,13.00
2023-12-28T17:59:03.844Z,13.00
2023-12-28T18:01:51.108Z,13.10
2023-12-28T18:04:37.470Z,13.20
2023-12-28T18:07:23.119Z,13.10
2023-12-28T18:10:10.157Z,12.80
2023-12-28T18:12:56.308Z,12.90
2023-12-28T18:15:42.334Z,13.10
2023-12-28T18:18:29.874Z,13.20
2023-12-28T18:21:15.452Z,13.30
2023-12-28T18:24:01.261Z,13.20
2023-12-28T18:26:46.924Z,13.30
2023-12-28T18:29:32.765Z,13.20
2023-12-28T18:32:18.665Z,13.30
2023-12-28T18:35:06.878Z,13.30
2023-12-28T18:37:52.330Z,13.40
2023-12-28T18:40:38.177Z,13.50
2023-12-28T18:43:23.910Z,13.40
2023-12-28T18:46:09.488Z,13.50
2023-12-28T18:48:55.936Z,13.40
2023-12-28T18:51:42.991Z,13.50
2023-12-28T18:54:28.748Z,13.30
2023-12-28T18:57:14.775Z,13.30
2023-12-28T19:00:00.388Z,13.40
2023-12-28T19:02:45.961Z,13.50
2023-12-28T19:05:32.046Z,13.30
2023-12-28T19:08:19.966Z,13.40
2023-12-28T19:11:11.215Z,13.50
2023-12-28T19:13:56.882Z,13.50
2023-12-28T19:16:42.674Z,13.50
2023-12-28T19:19:34.083Z,13.60
2023-12-28T19:22:19.923Z,13.70
2023-12-28T19:25:07.761Z,13.80
2023-12-28T19:27:53.479Z,13.70
2023-12-28T19:30:39.528Z,13.50
2023-12-28T19:33:26.081Z,13.50
2023-12-28T19:36:12.220Z,13.30
2023-12-28T19:38:58.282Z,13.20
2023-12-28T19:41:45.366Z,13.30
2023-12-28T19:44:31.149Z,13.30
2023-12-28T19:47:16.628Z,13.40
2023-12-28T19:50:02.648Z,13.20
2023-12-28T19:52:48.559Z,13.00
2023-12-28T19:55:34.196Z,13.10
2023-12-28T19:58:21.076Z,13.20
2023-12-28T20:01:07.620Z,13.40
2023-12-28T20:03:53.667Z,13.50
2023-12-28T20:06:43.318Z,13.50
2023-12-28T20:09:28.823Z,13.60
2023-12-28T20:12:14.576Z,13.30
2023-12-28T20:15:01.948Z,13.40
2023-12-28T20:17:48.118Z,13.20
2023-12-28T20:20:34.025Z,13.30
2023-12-28T20:23:20.013Z,13.40
2023-12-28T20:26:05.781Z,13.60
2023-12-28T20:28:51.977Z,13.60
2023-12-28T20:31:41.026Z,13.70
2023-12-28T20:34:27.034Z,13.80
2023-12-28T20:37:12.923Z,13.70
2023-12-28T20:39:59.114Z,13.90
2023-12-28T20:42:45.404Z,13.80
2023-12-28T20:45:31.182Z,13.80
2023-12-28T20:48:18.582Z,13.90
2023-12-28T20:51:05.451Z,13.50
2023-12-28T20:53:51.398Z,13.50
2023-12-28T20:56:37.838Z,13.40
2023-12-28T20:59:23.656Z,13.40
2023-12-28T21:02:09.074Z,13.60
2023-12-28T21:04:56.314Z,13.50
2023-12-28T21:07:43.517Z,13.60
2023-12-28T21:10:29.842Z,13.60
2023-12-28T21:13:21.560Z,13.40
2023-12-28T21:16:07.230Z,13.20
2023-12-28T21:18:53.358Z,13.20
2023-12-28T21:21:40.245Z,13.20
2023-12-28T21:24:28.992Z,13.10
2023-12-28T21:27:15.262Z,13.10
2023-12-28T21:30:01.067Z,13.20
2023-12-28T21:32:46.924Z,13.50
2023-12-28T21:35:32.990Z,13.30
2023-12-28T21:38:20.461Z,13.50
2023-12-28T21:41:06.553Z,13.30
2023-12-28T21:43:52.836Z,13.10
2023-12-28T21:46:40.118Z,13.30
2023-12-28T21:49:25.987Z,13.40
2023-12-28T21:52:15.874Z,13.30
2023-12-28T21:55:03.423Z,13.50
2023-12-28T21:57:49.453Z,13.40
2023-12-28T22:00:35.186Z,13.50
2023-12-28T22:03:21.212Z,13.20
2023-12-28T22:06:07.987Z,13.30
2023-12-28T22:08:56.292Z,13.30
2023-12-28T22:11:43.334Z,13.30
2023-12-28T22:14:29.217Z,13.50
2023-12-28T22:17:15.010Z,13.60
2023-12-28T22:20:01.075Z,13.70
2023-12-28T22:22:47.271Z,13.80
2023-12-28T22:25:32.824Z,13.50
2023-12-28T22:28:19.980Z,13.50
2023-12-28T22:31:05.988Z,13.60
2023-12-28T22:33:52.265Z,13.70
2023-12-28T22:36:38.424Z,13.50
2023-12-28T22:39:24.372Z,13.60
2023-12-28T22:42:12.424Z,13.60
2023-12-28T22:44:59.546Z,13.40
2023-12-28T22:47:45.483Z,13.40
2023-12-28T22:50:33.514Z,13.40
2023-12-28T22:53:19.537Z,13.50
2023-12-28T22:56:06.216Z,13.40
2023-12-28T22:58:52.000Z,13.40
2023-12-28T23:01:41.745Z,13.50
2023-12-28T23:04:45.928Z,13.60
2023-12-28T23:07:35.756Z,13.40
2023-12-28T23:10:21.756Z,13.40
2023-12-28T23:13:07.361Z,13.30
2023-12-28T23:15:53.916Z,13.30
2023-12-28T23:18:41.113Z,13.30
2023-12-28T23:21:26.855Z,13.20
2023-12-28T23:24:12.619Z,13.00
2023-12-28T23:26:57.910Z,12.70
2023-12-28T23:29:43.896Z,12.50
2023-12-28T23:32:29.798Z,12.60
2023-12-28T23:35:17.707Z,12.80
2023-12-28T23:38:03.818Z,12.90
2023-12-28T23:40:49.745Z,12.90
2023-12-28T23:43:35.787Z,13.00
2023-12-28T23:46:22.089Z,13.00
2023-12-28T23:49:08.046Z,13.20
2023-12-28T23:51:55.582Z,13.10
2023-12-28T23:54:41.638Z,13.30
2023-12-28T23:57:27.082Z,13.40
